createdAt,value
2019-02-07T00:01:23.448Z,19.03
2019-02-07T00:03:50.387Z,19.67
2019-02-07T00:06:17.355Z,24.23
2019-02-07T00:08:44.289Z,19.57
2019-02-07T00:11:11.224Z,21.10
2019-02-07T00:13:38.177Z,21.97
2019-02-07T00:16:05.097Z,20.87
2019-02-07T00:18:32.021Z,19.37
2019-02-07T00:20:58.988Z,19.73
2019-02-07T00:23:26.236Z,19.83
2019-02-07T00:25:53.181Z,22.13
2019-02-07T00:28:20.137Z,21.87
2019-02-07T00:30:47.091Z,23.07
2019-02-07T00:33:14.031Z,21.00
2019-02-07T00:35:40.981Z,20.03
2019-02-07T00:38:07.929Z,19.77
2019-02-07T00:40:34.857Z,19.00
2019-02-07T00:43:01.806Z,19.87
2019-02-07T00:45:28.747Z,19.50
2019-02-07T00:47:55.678Z,18.63
2019-02-07T00:50:22.627Z,22.03
2019-02-07T00:52:49.568Z,22.40
2019-02-07T00:55:16.538Z,19.83
2019-02-07T00:57:43.496Z,23.20
2019-02-07T01:00:13.939Z,22.10
2019-02-07T01:02:40.863Z,19.87
2019-02-07T01:05:08.508Z,18.53
2019-02-07T01:07:35.431Z,22.50
2019-02-07T01:10:03.774Z,23.27
2019-02-07T01:12:30.724Z,22.10
2019-02-07T01:15:02.262Z,22.77
2019-02-07T01:17:24.619Z,23.47
2019-02-07T01:19:51.569Z,23.03
2019-02-07T01:22:18.492Z,21.60
2019-02-07T01:24:45.704Z,21.07
2019-02-07T01:27:12.653Z,22.33
2019-02-07T01:29:39.597Z,20.03
2019-02-07T01:32:06.526Z,20.97
2019-02-07T01:34:33.478Z,21.57
2019-02-07T01:37:00.398Z,20.80
2019-02-07T01:39:27.332Z,21.97
2019-02-07T01:41:54.270Z,21.77
2019-02-07T01:44:21.199Z,22.17
2019-02-07T01:46:48.136Z,27.10
2019-02-07T01:49:15.128Z,25.83
2019-02-07T01:51:42.064Z,20.50
2019-02-07T01:54:09.000Z,20.97
2019-02-07T01:56:35.947Z,21.60
2019-02-07T01:59:02.891Z,22.30
2019-02-07T02:01:29.820Z,25.43
2019-02-07T02:03:56.776Z,22.97
2019-02-07T02:06:23.691Z,21.03
2019-02-07T02:08:50.883Z,24.77
2019-02-07T02:11:17.832Z,22.17
2019-02-07T02:13:44.758Z,21.83
2019-02-07T02:16:11.681Z,25.53
2019-02-07T02:18:38.616Z,22.43
2019-02-07T02:21:05.541Z,22.27
2019-02-07T02:23:32.477Z,22.07
2019-02-07T02:26:00.072Z,21.47
2019-02-07T02:28:27.003Z,22.07
2019-02-07T02:30:53.943Z,21.13
2019-02-07T02:33:20.893Z,23.30
2019-02-07T02:35:47.826Z,27.23
2019-02-07T02:38:14.758Z,23.50
2019-02-07T02:40:41.710Z,20.57
2019-02-07T02:43:08.627Z,22.23
2019-02-07T02:45:37.867Z,22.33
2019-02-07T02:48:02.509Z,26.73
2019-02-07T02:50:29.428Z,21.60
2019-02-07T02:52:56.355Z,24.63
2019-02-07T02:55:27.866Z,25.20
2019-02-07T02:57:54.809Z,23.60
2019-02-07T03:00:24.208Z,23.63
2019-02-07T03:03:15.703Z,24.93
2019-02-07T03:05:56.615Z,22.47
2019-02-07T03:08:47.231Z,25.23
2019-02-07T03:11:23.896Z,22.53
2019-02-07T03:14:09.872Z,23.23
2019-02-07T03:16:42.528Z,22.10
2019-02-07T03:19:34.145Z,22.57
2019-02-07T03:22:20.500Z,23.27
2019-02-07T03:24:53.281Z,22.70
2019-02-07T03:27:33.649Z,26.20
2019-02-07T03:30:24.086Z,23.67
2019-02-07T03:33:01.330Z,24.70
2019-02-07T03:35:48.195Z,19.73
2019-02-07T03:38:28.917Z,23.17
2019-02-07T03:41:05.548Z,21.17
2019-02-07T03:43:42.174Z,22.43
2019-02-07T03:46:25.000Z,23.40
2019-02-07T03:48:57.739Z,25.13
2019-02-07T03:51:30.161Z,20.93
2019-02-07T03:54:06.112Z,22.30
2019-02-07T03:56:56.652Z,27.67
2019-02-07T03:59:46.105Z,23.60
2019-02-07T04:02:33.483Z,20.00
2019-02-07T04:05:09.567Z,22.87
2019-02-07T04:07:50.464Z,25.93
2019-02-07T04:10:36.145Z,23.87
2019-02-07T04:13:16.102Z,25.83
2019-02-07T04:16:14.735Z,25.57
2019-02-07T04:18:45.535Z,27.63
2019-02-07T04:21:23.620Z,25.43
2019-02-07T04:23:56.356Z,27.70
2019-02-07T04:26:28.952Z,28.97
2019-02-07T04:29:03.061Z,28.20
2019-02-07T04:31:40.494Z,27.67
2019-02-07T04:34:18.412Z,24.93
2019-02-07T04:37:04.948Z,24.70
2019-02-07T04:39:46.523Z,24.87
2019-02-07T04:42:21.329Z,26.27
2019-02-07T04:44:56.905Z,23.63
2019-02-07T04:47:38.274Z,21.40
2019-02-07T04:50:22.243Z,22.53
2019-02-07T04:53:08.824Z,23.20
2019-02-07T04:55:53.207Z,24.10
2019-02-07T04:58:26.577Z,22.40
2019-02-07T05:01:07.807Z,23.57
2019-02-07T05:03:47.405Z,21.33
2019-02-07T05:06:36.819Z,25.30
2019-02-07T05:09:30.634Z,21.13
2019-02-07T05:12:09.610Z,20.20
2019-02-07T05:14:58.119Z,21.83
2019-02-07T05:17:41.012Z,23.63
2019-02-07T05:20:22.960Z,22.20
2019-02-07T05:23:09.636Z,20.97
2019-02-07T05:25:56.171Z,21.30
2019-02-07T05:28:44.648Z,22.20
2019-02-07T05:31:21.301Z,24.90
2019-02-07T05:33:58.091Z,20.33
2019-02-07T05:36:35.680Z,20.90
2019-02-07T05:39:10.111Z,23.87
2019-02-07T05:41:46.207Z,22.17
2019-02-07T05:44:23.680Z,21.83
2019-02-07T05:46:56.499Z,20.17
2019-02-07T05:49:29.186Z,19.33
2019-02-07T05:52:01.981Z,24.33
2019-02-07T05:54:48.545Z,21.40
2019-02-07T05:57:25.392Z,24.40
2019-02-07T06:00:11.957Z,22.80
2019-02-07T06:02:48.912Z,19.10
2019-02-07T06:05:28.511Z,20.30
2019-02-07T06:08:01.279Z,18.60
2019-02-07T06:10:33.875Z,24.17
2019-02-07T06:13:06.517Z,23.33
2019-02-07T06:15:47.160Z,19.80
2019-02-07T06:18:19.811Z,20.63
2019-02-07T06:21:02.488Z,19.97
2019-02-07T06:23:41.889Z,21.80
2019-02-07T06:26:15.513Z,21.57
2019-02-07T06:28:57.655Z,19.53
2019-02-07T06:31:29.966Z,18.40
2019-02-07T06:34:02.719Z,20.47
2019-02-07T06:36:35.400Z,23.07
2019-02-07T06:39:19.320Z,18.97
2019-02-07T06:41:52.231Z,21.37
2019-02-07T06:44:35.224Z,19.87
2019-02-07T06:47:13.470Z,21.30
2019-02-07T06:49:56.776Z,21.47
2019-02-07T06:52:34.952Z,22.50
2019-02-07T06:55:17.961Z,16.37
2019-02-07T06:57:50.621Z,18.57
2019-02-07T07:00:28.249Z,19.10
2019-02-07T07:03:19.981Z,20.03
2019-02-07T07:05:59.529Z,18.10
2019-02-07T07:08:35.301Z,19.87
2019-02-07T07:11:12.456Z,22.77
2019-02-07T07:13:45.057Z,20.17
2019-02-07T07:16:26.438Z,19.50
2019-02-07T07:19:18.114Z,18.13
2019-02-07T07:24:43.409Z,18.70
2019-02-07T07:27:24.152Z,18.23
2019-02-07T07:30:11.581Z,18.40
2019-02-07T07:32:54.438Z,19.20
2019-02-07T07:35:36.448Z,16.87
2019-02-07T07:38:28.941Z,17.30
2019-02-07T07:41:01.728Z,16.63
2019-02-07T07:43:48.285Z,17.77
2019-02-07T07:46:29.643Z,16.13
2019-02-07T07:49:06.323Z,18.53
2019-02-07T07:51:39.212Z,20.67
2019-02-07T07:54:20.472Z,19.63
2019-02-07T07:57:01.475Z,19.43
2019-02-07T07:59:44.585Z,17.07
2019-02-07T08:02:25.174Z,15.37
2019-02-07T08:05:00.424Z,19.00
2019-02-07T08:07:37.516Z,18.43
2019-02-07T08:10:28.580Z,19.40
2019-02-07T08:13:16.004Z,17.27
2019-02-07T08:15:53.621Z,15.70
2019-02-07T08:18:31.741Z,14.63
2019-02-07T08:21:18.290Z,16.53
2019-02-07T08:23:50.946Z,15.13
2019-02-07T08:26:23.737Z,14.27
2019-02-07T08:29:00.387Z,16.40
2019-02-07T08:31:49.820Z,14.40
2019-02-07T08:34:34.635Z,11.93
2019-02-07T08:37:13.335Z,13.20
2019-02-07T08:42:50.876Z,16.70
2019-02-07T08:45:30.387Z,15.97
2019-02-07T08:48:08.317Z,25.10
2019-02-07T08:50:41.058Z,16.87
2019-02-07T08:53:29.669Z,17.03
2019-02-07T08:56:11.549Z,14.40
2019-02-07T08:58:54.076Z,13.37
2019-02-07T09:01:45.438Z,12.77
2019-02-07T09:04:25.347Z,13.10
2019-02-07T09:07:12.761Z,14.27
2019-02-07T09:09:47.504Z,14.67
2019-02-07T09:12:28.682Z,13.30
2019-02-07T09:15:17.039Z,13.77
2019-02-07T09:17:52.163Z,12.87
2019-02-07T09:20:32.340Z,12.43
2019-02-07T09:23:05.917Z,12.50
2019-02-07T09:25:56.502Z,12.37
2019-02-07T09:28:46.033Z,16.27
2019-02-07T09:31:37.668Z,14.53
2019-02-07T09:34:10.320Z,17.17
2019-02-07T09:36:44.607Z,16.20
2019-02-07T09:39:28.772Z,12.83
2019-02-07T09:42:19.264Z,16.67
2019-02-07T09:44:55.947Z,13.80
2019-02-07T09:47:43.522Z,16.57
2019-02-07T09:50:16.332Z,15.23
2019-02-07T09:52:51.628Z,13.40
2019-02-07T09:55:24.187Z,16.93
2019-02-07T09:58:02.010Z,13.77
2019-02-07T10:00:36.301Z,16.80
2019-02-07T10:03:22.799Z,14.83
2019-02-07T10:06:10.133Z,16.87
2019-02-07T10:08:42.885Z,16.53
2019-02-07T10:11:35.288Z,17.37
2019-02-07T10:14:26.800Z,17.63
2019-02-07T10:17:15.450Z,11.87
2019-02-07T10:19:56.965Z,17.50
2019-02-07T10:22:34.041Z,15.53
2019-02-07T10:25:26.643Z,16.97
2019-02-07T10:28:04.072Z,13.60
2019-02-07T10:30:50.655Z,18.33
2019-02-07T10:33:32.276Z,14.97
2019-02-07T10:36:23.672Z,12.70
2019-02-07T10:39:15.566Z,14.97
2019-02-07T10:41:53.350Z,11.67
2019-02-07T10:44:41.758Z,13.90
2019-02-07T10:47:21.440Z,13.20
2019-02-07T10:49:59.290Z,14.40
2019-02-07T10:52:40.281Z,14.47
2019-02-07T10:55:18.621Z,18.03
2019-02-07T10:57:59.122Z,16.67
2019-02-07T11:00:31.775Z,16.17
2019-02-07T11:03:22.362Z,17.07
2019-02-07T11:06:14.949Z,21.87
2019-02-07T11:08:59.896Z,16.23
2019-02-07T11:11:38.813Z,17.13
2019-02-07T11:14:21.539Z,18.60
2019-02-07T11:17:05.522Z,25.67
2019-02-07T11:19:46.989Z,17.03
2019-02-07T11:22:36.503Z,18.23
2019-02-07T11:25:10.480Z,16.87
2019-02-07T11:27:43.304Z,14.10
2019-02-07T11:30:23.027Z,16.13
2019-02-07T11:33:04.091Z,20.47
2019-02-07T11:35:36.729Z,21.53
2019-02-07T11:38:24.046Z,15.03
2019-02-07T11:41:12.902Z,14.47
2019-02-07T11:44:02.408Z,18.63
2019-02-07T11:46:43.509Z,14.97
2019-02-07T11:49:18.122Z,16.50
2019-02-07T11:51:50.983Z,15.73
2019-02-07T11:54:31.680Z,17.37
2019-02-07T11:57:21.045Z,18.47
2019-02-07T12:00:10.393Z,17.50
2019-02-07T12:02:56.849Z,23.33
2019-02-07T12:05:33.814Z,20.57
2019-02-07T12:08:16.028Z,16.13
2019-02-07T12:10:58.834Z,17.90
2019-02-07T12:13:37.683Z,15.40
2019-02-07T12:16:24.232Z,15.40
2019-02-07T12:19:18.089Z,19.07
2019-02-07T12:21:58.852Z,15.17
2019-02-07T12:24:48.276Z,17.13
2019-02-07T12:27:30.918Z,18.93
2019-02-07T12:30:07.189Z,18.57
2019-02-07T12:32:39.660Z,14.70
2019-02-07T12:35:21.921Z,18.03
2019-02-07T12:37:59.977Z,20.40
2019-02-07T12:40:32.721Z,16.07
2019-02-07T12:43:20.576Z,15.07
2019-02-07T12:45:53.372Z,19.33
2019-02-07T12:48:35.181Z,19.43
2019-02-07T12:51:20.044Z,13.83
2019-02-07T12:54:09.621Z,16.50
2019-02-07T12:56:57.147Z,14.50
2019-02-07T12:59:39.045Z,14.67
2019-02-07T13:02:28.436Z,16.90
2019-02-07T13:05:20.831Z,13.00
2019-02-07T13:08:13.372Z,16.80
2019-02-07T13:10:53.792Z,14.60
2019-02-07T13:13:31.021Z,12.67
2019-02-07T13:16:11.471Z,14.67
2019-02-07T13:18:56.731Z,16.90
2019-02-07T13:21:44.114Z,16.20
2019-02-07T13:24:16.989Z,16.37
2019-02-07T13:26:49.701Z,15.40
2019-02-07T13:29:22.312Z,16.73
2019-02-07T13:32:12.737Z,16.70
2019-02-07T13:34:50.022Z,14.10
2019-02-07T13:37:26.966Z,16.27
2019-02-07T13:39:59.688Z,14.73
2019-02-07T13:42:49.071Z,16.00
2019-02-07T13:45:39.145Z,16.10
2019-02-07T13:48:29.604Z,14.83
2019-02-07T13:51:15.308Z,15.10
2019-02-07T13:53:47.929Z,17.70
2019-02-07T13:56:35.518Z,19.70
2019-02-07T13:59:08.388Z,17.70
2019-02-07T14:01:54.952Z,16.17
2019-02-07T14:04:35.879Z,16.77
2019-02-07T14:07:25.258Z,16.93
2019-02-07T14:10:03.248Z,18.97
2019-02-07T14:12:35.892Z,15.13
2019-02-07T14:15:24.529Z,21.73
2019-02-07T14:18:04.087Z,13.50
2019-02-07T14:20:45.214Z,15.23
2019-02-07T14:23:25.500Z,13.37
2019-02-07T14:26:07.266Z,12.60
2019-02-07T14:28:47.345Z,14.27
2019-02-07T14:31:30.334Z,14.07
2019-02-07T14:34:16.896Z,11.93
2019-02-07T14:37:00.803Z,10.60
2019-02-07T14:39:44.452Z,12.27
2019-02-07T14:42:31.003Z,9.23
2019-02-07T14:45:13.684Z,9.00
2019-02-07T14:47:41.403Z,8.63
2019-02-07T14:50:14.832Z,9.63
2019-02-07T14:52:35.416Z,9.67
2019-02-07T14:55:02.335Z,9.90
2019-02-07T14:57:29.279Z,11.00
2019-02-07T14:59:56.224Z,14.17
2019-02-07T15:02:23.161Z,10.73
2019-02-07T15:04:50.098Z,13.17
2019-02-07T15:07:17.075Z,9.57
2019-02-07T15:09:44.049Z,12.03
2019-02-07T15:12:10.971Z,9.63
2019-02-07T15:14:37.920Z,10.93
2019-02-07T15:17:04.843Z,10.63
2019-02-07T15:19:31.785Z,10.80
2019-02-07T15:21:58.736Z,10.50
2019-02-07T15:24:25.678Z,15.10
2019-02-07T15:26:52.626Z,14.10
2019-02-07T15:29:19.580Z,9.00
2019-02-07T15:31:46.520Z,10.17
2019-02-07T15:34:13.456Z,12.13
2019-02-07T15:36:42.534Z,10.47
2019-02-07T15:39:09.460Z,11.57
2019-02-07T15:41:36.656Z,11.10
2019-02-07T15:44:03.627Z,12.80
2019-02-07T15:46:30.565Z,11.57
2019-02-07T15:48:58.839Z,12.60
2019-02-07T15:51:25.813Z,11.77
2019-02-07T15:53:52.744Z,12.27
2019-02-07T15:56:19.685Z,12.13
2019-02-07T15:59:07.118Z,12.10
2019-02-07T16:01:39.041Z,11.63
2019-02-07T16:04:24.588Z,12.07
2019-02-07T16:06:51.531Z,14.17
2019-02-07T16:09:18.464Z,11.23
2019-02-07T16:11:45.444Z,12.23
2019-02-07T16:14:12.360Z,15.97
2019-02-07T16:16:39.298Z,12.33
2019-02-07T16:19:06.257Z,12.43
2019-02-07T16:21:33.185Z,13.03
2019-02-07T16:24:00.148Z,14.20
2019-02-07T16:26:27.116Z,13.23
2019-02-07T16:28:54.064Z,15.60
2019-02-07T16:31:20.991Z,15.43
2019-02-07T16:33:47.940Z,15.43
2019-02-07T16:36:14.875Z,16.17
2019-02-07T16:38:41.807Z,19.30
2019-02-07T16:41:10.499Z,16.60
2019-02-07T16:43:35.685Z,17.83
2019-02-07T16:46:02.656Z,18.60
2019-02-07T16:48:29.617Z,16.10
2019-02-07T16:51:00.225Z,13.23
2019-02-07T16:53:23.672Z,18.07
2019-02-07T16:55:50.600Z,21.17
2019-02-07T16:58:17.531Z,13.23
2019-02-07T17:00:44.499Z,14.00
2019-02-07T17:03:11.456Z,16.73
2019-02-07T17:05:38.389Z,19.73
2019-02-07T17:08:05.321Z,11.40
2019-02-07T17:10:32.337Z,11.90
2019-02-07T17:12:59.265Z,12.13
2019-02-07T17:15:26.208Z,11.80
2019-02-07T17:17:53.182Z,12.13
2019-02-07T17:20:22.539Z,13.80
2019-02-07T17:22:49.461Z,10.40
2019-02-07T17:25:16.408Z,9.97
2019-02-07T17:27:43.357Z,12.43
2019-02-07T17:30:12.691Z,9.30
2019-02-07T17:32:39.629Z,11.47
2019-02-07T17:35:06.638Z,9.63
2019-02-07T17:37:33.572Z,13.17
2019-02-07T17:40:00.615Z,13.20
2019-02-07T17:42:27.535Z,10.03
2019-02-07T17:44:54.395Z,11.10
2019-02-07T17:47:21.346Z,10.93
2019-02-07T17:49:48.272Z,12.50
2019-02-07T17:52:15.650Z,15.43
2019-02-07T17:54:42.591Z,9.17
2019-02-07T17:57:09.528Z,11.47
2019-02-07T17:59:36.484Z,9.07
2019-02-07T18:02:03.828Z,11.40
2019-02-07T18:04:30.751Z,11.33
2019-02-07T18:06:57.684Z,9.10
2019-02-07T18:09:24.617Z,8.07
2019-02-07T18:11:51.548Z,10.70
2019-02-07T18:14:18.481Z,8.23
2019-02-07T18:16:45.420Z,10.73
2019-02-07T18:19:12.381Z,9.07
2019-02-07T18:21:39.326Z,7.20
2019-02-07T18:24:06.284Z,6.93
2019-02-07T18:26:33.238Z,9.13
2019-02-07T18:29:00.208Z,7.93
2019-02-07T18:31:27.155Z,9.87
2019-02-07T18:33:54.140Z,9.87
2019-02-07T18:36:21.113Z,6.30
2019-02-07T18:38:48.096Z,7.37
2019-02-07T18:41:15.109Z,11.87
2019-02-07T18:43:42.064Z,11.27
2019-02-07T18:46:09.046Z,8.97
2019-02-07T18:48:35.971Z,7.70
2019-02-07T18:51:02.913Z,8.80
2019-02-07T18:53:31.365Z,7.70
2019-02-07T18:55:58.313Z,6.53
2019-02-07T18:58:25.312Z,8.00
2019-02-07T19:00:52.487Z,7.43
2019-02-07T19:03:19.437Z,10.03
2019-02-07T19:05:46.384Z,10.23
2019-02-07T19:08:13.445Z,9.10
2019-02-07T19:10:40.276Z,12.37
2019-02-07T19:13:07.208Z,15.80
2019-02-07T19:15:37.911Z,11.10
2019-02-07T19:18:04.933Z,9.97
2019-02-07T19:20:31.864Z,8.40
2019-02-07T19:22:58.841Z,10.10
2019-02-07T19:25:25.781Z,9.57
2019-02-07T19:27:52.728Z,7.80
2019-02-07T19:30:23.609Z,9.90
2019-02-07T19:32:50.546Z,10.20
2019-02-07T19:35:17.481Z,10.03
2019-02-07T19:37:44.424Z,11.97
2019-02-07T19:40:11.508Z,14.97
2019-02-07T19:42:38.439Z,13.03
2019-02-07T19:45:06.495Z,12.17
2019-02-07T19:50:26.829Z,21.53
2019-02-07T19:52:53.749Z,19.43
2019-02-07T19:55:22.731Z,18.40
2019-02-07T19:57:49.719Z,13.03
2019-02-07T20:00:19.196Z,7.80
2019-02-07T20:02:46.133Z,8.00
2019-02-07T20:05:13.131Z,6.50
2019-02-07T20:07:40.091Z,11.03
2019-02-07T20:10:09.639Z,8.70
2019-02-07T20:12:36.597Z,11.67
2019-02-07T20:15:06.557Z,7.50
2019-02-07T20:17:33.503Z,8.90
2019-02-07T20:20:00.460Z,10.20
2019-02-07T20:22:27.477Z,11.07
2019-02-07T20:24:54.420Z,9.40
2019-02-07T20:27:21.364Z,9.83
2019-02-07T20:29:48.303Z,8.40
2019-02-07T20:32:15.233Z,8.43
2019-02-07T20:34:42.194Z,10.80
2019-02-07T20:37:09.241Z,12.80
2019-02-07T20:39:36.205Z,7.83
2019-02-07T20:42:03.209Z,10.90
2019-02-07T20:44:30.156Z,14.07
2019-02-07T20:46:57.099Z,10.30
2019-02-07T20:49:24.075Z,10.53
2019-02-07T20:51:51.662Z,10.80
2019-02-07T20:54:18.722Z,6.50
2019-02-07T20:56:45.678Z,6.23
2019-02-07T20:59:12.621Z,5.87
2019-02-07T21:01:39.556Z,6.23
2019-02-07T21:04:06.515Z,7.93
2019-02-07T21:06:33.448Z,5.80
2019-02-07T21:09:00.828Z,6.13
2019-02-07T21:11:27.773Z,4.63
2019-02-07T21:13:54.716Z,6.77
2019-02-07T21:16:21.648Z,6.70
2019-02-07T21:18:48.611Z,6.03
2019-02-07T21:21:15.585Z,4.20
2019-02-07T21:23:42.527Z,6.27
2019-02-07T21:26:09.521Z,5.90
2019-02-07T21:28:36.468Z,5.03
2019-02-07T21:31:03.423Z,5.27
2019-02-07T21:33:30.378Z,6.13
2019-02-07T21:35:57.308Z,4.43
2019-02-07T21:38:24.249Z,6.77
2019-02-07T21:40:51.214Z,4.80
2019-02-07T21:43:18.153Z,5.37
2019-02-07T21:45:45.072Z,5.87
2019-02-07T21:48:12.084Z,4.17
2019-02-07T21:50:39.041Z,12.93
2019-02-07T21:53:07.584Z,4.93
2019-02-07T21:55:34.707Z,6.70
2019-02-07T21:58:01.651Z,6.43
2019-02-07T22:00:31.190Z,3.90
2019-02-07T22:02:58.154Z,4.00
2019-02-07T22:05:25.501Z,3.80
2019-02-07T22:07:52.427Z,4.97
2019-02-07T22:10:19.383Z,5.13
2019-02-07T22:12:46.315Z,4.00
2019-02-07T22:15:15.844Z,5.13
2019-02-07T22:17:42.823Z,5.43
2019-02-07T22:20:13.529Z,6.10
2019-02-07T22:22:40.575Z,7.90
2019-02-07T22:25:07.551Z,6.87
2019-02-07T22:27:34.975Z,6.07
2019-02-07T22:30:01.944Z,5.87
2019-02-07T22:32:28.903Z,8.00
2019-02-07T22:34:55.848Z,7.23
2019-02-07T22:37:22.792Z,5.30
2019-02-07T22:39:49.747Z,7.37
2019-02-07T22:42:16.707Z,8.37
2019-02-07T22:44:43.648Z,7.37
2019-02-07T22:47:10.627Z,6.70
2019-02-07T22:49:37.576Z,9.27
2019-02-07T22:52:04.523Z,6.27
2019-02-07T22:54:31.929Z,7.93
2019-02-07T22:56:58.872Z,6.83
2019-02-07T22:59:25.941Z,7.83
2019-02-07T23:01:54.637Z,6.00
2019-02-07T23:04:22.888Z,4.83
2019-02-07T23:06:49.841Z,7.00
2019-02-07T23:09:18.132Z,7.17
2019-02-07T23:11:45.067Z,7.43
2019-02-07T23:14:12.009Z,6.33
2019-02-07T23:16:38.968Z,7.53
2019-02-07T23:19:05.907Z,5.83
2019-02-07T23:21:32.848Z,6.87
2019-02-07T23:23:59.822Z,8.93
2019-02-07T23:26:26.753Z,9.10
2019-02-07T23:28:53.689Z,8.93
2019-02-07T23:31:20.658Z,7.60
2019-02-07T23:33:47.585Z,8.33
2019-02-07T23:36:14.518Z,8.33
2019-02-07T23:38:41.476Z,9.10
2019-02-07T23:41:09.370Z,7.37
2019-02-07T23:43:36.816Z,5.70
2019-02-07T23:46:03.988Z,8.87
2019-02-07T23:48:30.909Z,6.57
2019-02-07T23:50:57.840Z,6.03
2019-02-07T23:53:24.812Z,4.33
2019-02-07T23:55:52.252Z,6.63
2019-02-07T23:58:19.207Z,5.37
